Time;durP1;ratioP1;P1;durP2;ratioP2;P2;SDS_P1;SDS_P2;PMS_P1;PMS_P2;Temp;Humidity;BMP_temperature;BMP_pressure;BME280_temperature;BME280_humidity;BME280_pressure;Samples;Min_cycle;Max_cycle;Signal;HPM_P1;HPM_P2
2022/09/08 00:02:03;;;;;;;0.30;0.30;;;;;;;21.38;53.74;100284.94;5227795;22;20109;-83
2022/09/08 00:04:34;;;;;;;0.95;0.85;;;;;;;21.37;53.52;100277.91;5211193;28;20478;-81
2022/09/08 00:07:07;;;;;;;0.20;0.20;;;;;;;21.36;53.70;100271.72;5204659;28;20020;-82
2022/09/08 00:09:38;;;;;;;0.20;0.20;;;;;;;21.29;54.88;100275.84;5201746;28;20033;-83
2022/09/08 00:12:12;;;;;;;0.52;0.52;;;;;;;21.29;53.83;100281.19;5200813;28;20106;-82
2022/09/08 00:14:42;;;;;;;0.30;0.30;;;;;;;21.28;53.98;100267.97;5215918;28;20033;-82
2022/09/08 00:17:14;;;;;;;0.50;0.50;;;;;;;21.25;54.35;100266.41;5204973;28;20090;-82
2022/09/08 00:19:45;;;;;;;0.50;0.50;;;;;;;21.22;54.69;100261.28;5200801;28;20032;-81
2022/09/08 00:22:15;;;;;;;2.28;0.52;;;;;;;21.21;54.06;100256.94;5189887;28;20228;-81
2022/09/08 00:24:46;;;;;;;0.65;0.65;;;;;;;21.23;54.04;100255.84;5229818;28;20032;-82
2022/09/08 00:27:17;;;;;;;0.20;0.20;;;;;;;21.26;54.04;100254.75;5230633;28;20033;-81
2022/09/08 00:29:47;;;;;;;0.60;0.60;;;;;;;21.23;54.57;100247.00;5193978;28;20131;-82
2022/09/08 00:32:19;;;;;;;1.00;0.73;;;;;;;21.19;54.77;100243.72;5222335;28;20037;-82
2022/09/08 00:34:50;;;;;;;0.30;0.30;;;;;;;21.21;54.27;100233.78;5220534;28;20597;-83
2022/09/08 00:37:21;;;;;;;0.38;0.38;;;;;;;21.25;54.08;100234.38;5205119;28;20473;-81
2022/09/08 00:39:51;;;;;;;0.25;0.25;;;;;;;21.25;54.22;100234.38;5203714;28;20040;-82
2022/09/08 00:42:22;;;;;;;0.57;0.57;;;;;;;21.25;54.17;100237.06;5226746;28;20431;-82
2022/09/08 00:44:54;;;;;;;0.45;0.45;;;;;;;21.23;54.18;100228.31;5222975;28;20055;-81
2022/09/08 00:47:28;;;;;;;0.52;0.52;;;;;;;21.24;54.54;100216.69;5229984;28;20094;-83
2022/09/08 00:50:12;;;;;;;0.30;0.30;;;;;;;21.19;54.32;100226.88;5224911;28;20020;-82
2022/09/08 00:52:46;;;;;;;0.40;0.40;;;;;;;21.17;54.25;100229.66;5216779;28;20039;-82
2022/09/08 00:55:18;;;;;;;0.30;0.30;;;;;;;21.14;55.35;100219.25;5216428;28;20032;-82
2022/09/08 00:57:48;;;;;;;0.73;0.73;;;;;;;21.16;54.49;100221.78;5214154;28;20122;-81
2022/09/08 01:00:20;;;;;;;0.75;0.75;;;;;;;21.11;54.50;100213.31;5182000;28;20072;-82
2022/09/08 01:02:50;;;;;;;0.20;0.20;;;;;;;21.12;54.18;100212.31;5200857;28;20057;-81
2022/09/08 01:05:25;;;;;;;0.50;0.50;;;;;;;21.11;54.30;100208.81;5214842;28;20631;-83
2022/09/08 01:14:57;;;;;;;0.40;0.40;;;;;;;21.06;55.28;100225.16;5158859;28;20057;-82
2022/09/08 01:17:30;;;;;;;0.38;0.38;;;;;;;21.15;55.26;100225.41;5198634;28;20048;-83
2022/09/08 01:20:08;;;;;;;;;;;;;;;21.10;55.15;100219.59;5217401;28;20031;-83
2022/09/08 01:22:53;;;;;;;0.68;0.68;;;;;;;21.05;56.72;100218.13;5214310;28;19924;-83
2022/09/08 01:25:36;;;;;;;0.40;0.40;;;;;;;21.07;56.42;100216.19;5234043;28;20072;-82
2022/09/08 01:28:21;;;;;;;0.45;0.40;;;;;;;21.06;56.41;100217.16;5206778;28;20094;-82
2022/09/08 01:30:53;;;;;;;0.40;0.40;;;;;;;21.02;55.99;100215.72;5213257;28;20033;-82
2022/09/08 01:33:24;;;;;;;0.20;0.20;;;;;;;21.04;56.04;100213.78;5204211;28;20040;-82
2022/09/08 01:35:54;;;;;;;0.60;0.60;;;;;;;21.00;55.71;100208.78;5200390;28;20125;-82
2022/09/08 01:38:25;;;;;;;14.30;1.00;;;;;;;20.93;55.92;100219.13;5218472;28;20041;-81
2022/09/08 01:40:57;;;;;;;0.35;0.35;;;;;;;20.88;55.66;100213.28;5210123;28;20040;-83
2022/09/08 01:43:27;;;;;;;0.45;0.45;;;;;;;20.94;55.31;100206.63;5201368;28;20037;-81
2022/09/08 01:45:58;;;;;;;0.20;0.20;;;;;;;20.90;55.36;100208.69;5236317;28;20020;-82
2022/09/08 01:48:28;;;;;;;0.30;0.30;;;;;;;20.84;55.63;100207.34;5199633;28;20535;-82
2022/09/08 01:51:01;;;;;;;0.20;0.20;;;;;;;20.92;55.69;100210.25;5203595;28;20366;-81
2022/09/08 01:53:32;;;;;;;0.30;0.30;;;;;;;20.88;55.78;100213.28;5208012;28;20072;-82
2022/09/08 01:56:05;;;;;;;0.20;0.20;;;;;;;20.86;55.56;100209.91;5206500;28;20162;-82
2022/09/08 01:58:36;;;;;;;;;;;;;;;20.84;55.68;100217.19;5212374;28;20038;-81
2022/09/08 02:01:09;;;;;;;0.35;0.35;;;;;;;20.92;55.78;100228.09;5221369;28;19919;-82
2022/09/08 02:03:40;;;;;;;0.55;0.40;;;;;;;20.86;55.97;100228.56;5233896;28;20055;-82
2022/09/08 02:06:11;;;;;;;0.40;0.40;;;;;;;20.89;56.07;100233.66;5217573;28;20033;-83
2022/09/08 02:08:43;;;;;;;1.35;0.65;;;;;;;20.85;55.70;100232.22;5220111;28;20466;-82
2022/09/08 02:11:14;;;;;;;1.15;0.47;;;;;;;20.83;55.65;100223.47;5221650;28;20034;-81
2022/09/08 02:13:46;;;;;;;0.20;0.20;;;;;;;20.82;55.41;100205.78;5223587;28;20032;-81
2022/09/08 02:16:17;;;;;;;0.60;0.50;;;;;;;20.82;55.82;100213.78;5213671;28;20025;-82
2022/09/08 02:18:47;;;;;;;0.30;0.30;;;;;;;20.81;55.39;100214.75;5194172;28;20053;-83
2022/09/08 02:21:19;;;;;;;0.20;0.20;;;;;;;20.81;55.63;100228.06;5203398;28;20095;-81
2022/09/08 02:23:51;;;;;;;0.30;0.30;;;;;;;20.80;56.11;100235.22;5234234;28;20029;-82
2022/09/08 02:26:24;;;;;;;0.20;0.20;;;;;;;20.79;56.60;100232.66;5227415;28;20077;-83
2022/09/08 02:28:55;;;;;;;0.30;0.30;;;;;;;20.77;56.79;100237.28;5241371;28;20044;-82
2022/09/08 02:31:27;;;;;;;0.20;0.20;;;;;;;20.77;56.62;100239.97;5211536;28;20013;-81
2022/09/08 02:33:58;;;;;;;0.40;0.40;;;;;;;20.80;56.76;100242.38;5251003;28;20032;-81
2022/09/08 02:36:29;;;;;;;0.30;0.30;;;;;;;20.86;56.80;100241.91;5242601;28;20015;-81
2022/09/08 02:39:00;;;;;;;0.47;0.47;;;;;;;20.78;56.88;100239.81;5240436;28;20033;-81
2022/09/08 02:41:30;;;;;;;0.40;0.40;;;;;;;20.75;57.27;100224.94;5219523;28;20060;-82
2022/09/08 02:44:04;;;;;;;0.40;0.40;;;;;;;20.75;57.40;100210.72;5240338;28;20040;-82
2022/09/08 02:46:34;;;;;;;0.30;0.30;;;;;;;20.70;59.81;100208.38;5238976;28;20025;-82
2022/09/08 02:49:09;;;;;;;0.22;0.22;;;;;;;20.71;57.61;100211.91;5240958;28;20225;-82
2022/09/08 02:51:40;;;;;;;0.35;0.35;;;;;;;20.80;59.09;100221.91;5220332;28;20029;-82
2022/09/08 02:54:11;;;;;;;0.30;0.30;;;;;;;20.82;58.64;100229.78;5217819;28;20121;-81
2022/09/08 02:56:41;;;;;;;4.03;1.75;;;;;;;20.72;58.87;100234.94;5230231;28;20097;-83
2022/09/08 02:59:12;;;;;;;0.88;0.82;;;;;;;20.73;58.95;100239.34;5257941;28;20025;-83
2022/09/08 03:01:43;;;;;;;0.40;0.40;;;;;;;20.73;58.28;100242.84;5234155;28;20056;-84
2022/09/08 03:04:14;;;;;;;1.48;0.60;;;;;;;20.75;58.52;100240.06;5234926;28;20022;-83
2022/09/08 03:06:45;;;;;;;1.45;1.30;;;;;;;20.68;58.36;100245.00;5247938;28;20059;-85
2022/09/08 03:09:39;;;;;;;0.47;0.47;;;;;;;20.69;58.61;100237.84;5253953;28;20073;-82
2022/09/08 03:12:19;;;;;;;0.40;0.40;;;;;;;20.65;58.77;100239.06;5247873;28;20025;-82
2022/09/08 03:14:50;;;;;;;0.55;0.55;;;;;;;20.66;58.57;100244.25;5269857;28;20021;-83
2022/09/08 03:17:21;;;;;;;0.40;0.40;;;;;;;20.59;59.08;100230.56;5220619;28;20196;-80
2022/09/08 03:19:54;;;;;;;0.20;0.20;;;;;;;20.59;58.87;100233.22;5222287;28;20047;-83
2022/09/08 03:22:24;;;;;;;0.65;0.47;;;;;;;20.62;58.08;100237.47;5206159;28;20037;-81
2022/09/08 03:24:55;;;;;;;0.20;0.20;;;;;;;20.62;58.94;100233.94;5225922;28;20516;-80
2022/09/08 03:27:26;;;;;;;0.50;0.50;;;;;;;20.56;59.46;100235.28;5219733;28;20072;-82
2022/09/08 03:29:57;;;;;;;0.43;0.40;;;;;;;20.58;58.57;100238.69;5220655;28;20040;-81
2022/09/08 03:32:28;;;;;;;0.40;0.40;;;;;;;20.60;57.88;100236.75;5219719;28;20049;-81
2022/09/08 03:34:58;;;;;;;1.15;1.10;;;;;;;20.57;58.68;100231.66;5253469;28;20020;-83
2022/09/08 03:37:29;;;;;;;0.30;0.30;;;;;;;20.56;58.51;100229.94;5211683;28;20063;-80
2022/09/08 03:39:59;;;;;;;2.42;1.15;;;;;;;20.59;58.87;100235.03;5216657;28;20048;-82
2022/09/08 03:42:35;;;;;;;0.20;0.20;;;;;;;20.53;63.05;100232.88;5201730;28;20048;-81
2022/09/08 03:45:15;;;;;;;1.67;1.05;;;;;;;20.49;60.28;100240.25;5224810;28;20040;-83
2022/09/08 03:47:45;;;;;;;0.40;0.40;;;;;;;20.57;60.26;100231.66;5193883;28;20029;-80
2022/09/08 03:50:17;;;;;;;0.20;0.20;;;;;;;20.49;60.07;100234.91;5202681;28;20025;-81
2022/09/08 03:52:47;;;;;;;2.25;0.93;;;;;;;20.60;60.90;100234.91;5254998;28;20033;-83
2022/09/08 03:55:20;;;;;;;0.40;0.40;;;;;;;20.53;60.67;100231.03;5238727;28;20469;-82
2022/09/08 03:57:51;;;;;;;;;;;;;;;20.55;61.88;100236.22;5202108;28;20040;-81
2022/09/08 04:00:22;;;;;;;0.20;0.20;;;;;;;20.45;60.82;100239.59;5235034;28;20385;-82
2022/09/08 04:02:52;;;;;;;0.30;0.30;;;;;;;20.44;61.75;100243.25;5236370;28;20055;-81
2022/09/08 04:05:23;;;;;;;0.43;0.43;;;;;;;20.44;60.62;100227.28;5225643;28;20337;-81
2022/09/08 04:07:54;;;;;;;0.40;0.40;;;;;;;20.42;59.82;100228.34;5220555;28;20037;-81
2022/09/08 04:10:25;;;;;;;0.50;0.50;;;;;;;20.35;61.67;100225.31;5227832;28;20064;-81
2022/09/08 04:12:55;;;;;;;0.63;0.40;;;;;;;20.35;61.63;100227.97;5224796;28;20048;-80
2022/09/08 04:15:26;;;;;;;0.30;0.30;;;;;;;20.36;60.69;100229.69;5217341;28;20017;-81
2022/09/08 04:17:56;;;;;;;0.30;0.25;;;;;;;20.33;63.50;100223.72;5213318;28;20033;-81
2022/09/08 04:20:27;;;;;;;0.70;0.70;;;;;;;20.28;65.58;100232.06;5208049;28;20033;-81
2022/09/08 04:22:58;;;;;;;0.70;0.70;;;;;;;20.26;62.78;100228.66;5186403;28;20033;-84
2022/09/08 04:25:28;;;;;;;1.77;1.25;;;;;;;20.24;63.90;100233.25;5217909;28;20030;-83
2022/09/08 04:27:59;;;;;;;1.40;1.33;;;;;;;20.29;63.50;100236.41;5193552;28;20099;-83
2022/09/08 04:30:29;;;;;;;0.68;0.68;;;;;;;20.00;66.26;100228.81;5221195;28;20720;-82
2022/09/08 04:33:00;;;;;;;0.55;0.55;;;;;;;19.93;67.36;100239.06;5212524;28;20713;-82
2022/09/08 04:35:31;;;;;;;0.93;0.90;;;;;;;20.02;65.06;100247.31;5193504;28;20033;-81
2022/09/08 04:38:01;;;;;;;0.50;0.50;;;;;;;20.01;63.87;100241.16;5203657;28;20043;-82
2022/09/08 04:40:33;;;;;;;1.50;1.40;;;;;;;20.02;62.81;100229.56;5206760;28;20026;-81
2022/09/08 04:43:04;;;;;;;0.57;0.57;;;;;;;19.97;62.77;100235.22;5211318;28;20036;-82
2022/09/08 04:45:35;;;;;;;2.17;1.45;;;;;;;19.97;62.29;100237.88;5188830;28;20026;-82
2022/09/08 04:48:05;;;;;;;0.47;0.47;;;;;;;19.99;63.51;100235.09;5194785;28;20033;-82
2022/09/08 04:50:42;;;;;;;0.52;0.50;;;;;;;19.98;62.21;100228.06;5215820;28;20024;-81
2022/09/08 04:53:12;;;;;;;0.60;0.60;;;;;;;19.95;61.97;100228.31;5212640;28;20113;-81
2022/09/08 04:55:43;;;;;;;0.45;0.45;;;;;;;19.93;62.29;100232.91;5223684;28;20034;-83
2022/09/08 04:58:14;;;;;;;0.30;0.30;;;;;;;19.94;61.97;100234.59;5200692;28;20033;-82
2022/09/08 05:00:44;;;;;;;1.00;0.77;;;;;;;19.93;61.58;100230.25;5204281;28;20035;-81
2022/09/08 05:03:16;;;;;;;0.50;0.50;;;;;;;19.97;62.53;100237.03;5214244;28;20063;-82
2022/09/08 05:05:46;;;;;;;1.42;1.33;;;;;;;19.77;66.20;100234.00;5231773;28;20051;-82
2022/09/08 05:08:17;;;;;;;0.45;0.45;;;;;;;19.87;63.32;100249.34;5200071;28;20037;-83
2022/09/08 05:10:48;;;;;;;1.80;0.95;;;;;;;20.02;64.07;100248.19;5211927;28;20051;-81
2022/09/08 05:13:18;;;;;;;1.40;1.10;;;;;;;19.79;65.69;100253.34;5204613;28;20509;-82
2022/09/08 05:15:49;;;;;;;0.57;0.57;;;;;;;19.79;64.42;100258.69;5196013;28;20029;-82
2022/09/08 05:18:20;;;;;;;0.90;0.57;;;;;;;19.69;65.07;100267.44;5220707;28;20704;-82
2022/09/08 05:20:54;;;;;;;0.40;0.40;;;;;;;19.70;64.93;100263.84;5230090;28;20060;-82
2022/09/08 05:23:25;;;;;;;0.68;0.68;;;;;;;19.65;65.18;100273.00;5236505;28;20034;-82
2022/09/08 05:25:57;;;;;;;1.38;1.17;;;;;;;19.71;64.97;100263.72;5198754;28;20039;-82
2022/09/08 05:28:30;;;;;;;0.98;0.73;;;;;;;19.68;64.10;100266.63;5218098;28;20025;-82
2022/09/08 05:31:02;;;;;;;0.50;0.50;;;;;;;19.71;63.22;100266.38;5215891;28;20663;-83
2022/09/08 05:33:33;;;;;;;0.80;0.80;;;;;;;19.67;64.14;100270.22;5215522;28;20048;-82
2022/09/08 05:36:22;;;;;;;0.82;0.82;;;;;;;19.67;63.04;100265.75;5228021;28;20048;-81
2022/09/08 05:38:54;;;;;;;2.22;1.05;;;;;;;19.67;62.56;100268.41;5215554;28;20622;-83
2022/09/08 05:41:25;;;;;;;0.30;0.30;;;;;;;19.72;62.75;100272.56;5193804;28;20086;-81
2022/09/08 05:43:57;;;;;;;0.40;0.40;;;;;;;19.73;62.59;100267.13;5231985;28;20533;-82
2022/09/08 05:46:28;;;;;;;0.25;0.25;;;;;;;19.72;63.19;100262.75;5228878;28;20047;-81
2022/09/08 05:49:01;;;;;;;0.47;0.47;;;;;;;19.72;62.94;100254.78;5190107;28;20045;-82
2022/09/08 05:51:40;;;;;;;0.30;0.30;;;;;;;19.63;62.85;100261.63;5221558;28;20052;-81
2022/09/08 05:54:11;;;;;;;0.65;0.65;;;;;;;19.64;62.61;100265.13;5233331;28;20392;-81
2022/09/08 05:56:41;;;;;;;1.40;0.73;;;;;;;19.63;63.24;100252.78;5198013;28;20021;-81
2022/09/08 05:59:12;;;;;;;0.52;0.52;;;;;;;19.69;62.34;100260.34;5194992;28;20120;-81
2022/09/08 06:01:43;;;;;;;0.90;0.90;;;;;;;19.67;62.41;100254.25;5193110;28;20035;-82
2022/09/08 06:04:15;;;;;;;1.02;0.85;;;;;;;19.77;62.54;100247.31;5190142;28;20044;-82
2022/09/08 06:06:46;;;;;;;1.00;0.35;;;;;;;19.61;63.48;100246.75;5217220;28;20039;-81
2022/09/08 06:09:17;;;;;;;0.35;0.35;;;;;;;19.63;62.58;100258.09;5211123;28;20065;-80
2022/09/08 06:11:48;;;;;;;0.40;0.40;;;;;;;19.62;64.35;100261.75;5215642;28;20056;-80
2022/09/08 06:14:18;;;;;;;0.80;0.80;;;;;;;19.66;66.54;100272.06;5208519;28;20041;-81
2022/09/08 06:16:49;;;;;;;0.57;0.57;;;;;;;19.48;68.53;100270.72;5193399;28;20029;-82
2022/09/08 06:19:19;;;;;;;0.38;0.38;;;;;;;19.39;66.58;100276.69;5191708;28;20041;-81
2022/09/08 06:21:50;;;;;;;0.20;0.20;;;;;;;19.43;64.98;100267.50;5216306;28;20036;-82
2022/09/08 06:24:20;;;;;;;0.60;0.60;;;;;;;19.43;64.78;100268.38;5213395;28;20089;-81
2022/09/08 06:27:11;;;;;;;0.43;0.43;;;;;;;19.41;64.19;100264.97;5203059;28;20029;-81
2022/09/08 06:29:45;;;;;;;0.50;0.50;;;;;;;19.46;67.24;100273.47;5217536;28;20041;-81
2022/09/08 06:32:43;;;;;;;0.57;0.40;;;;;;;19.33;68.12;100280.63;5212410;28;20029;-81
2022/09/08 06:35:19;;;;;;;0.40;0.40;;;;;;;19.28;69.42;100280.13;5210747;28;20025;-80
2022/09/08 06:38:01;;;;;;;0.50;0.40;;;;;;;19.39;66.22;100288.16;5205784;28;20041;-81
2022/09/08 06:40:41;;;;;;;0.45;0.45;;;;;;;19.12;70.41;100278.53;5206013;28;20037;-81
2022/09/08 06:43:36;;;;;;;0.43;0.43;;;;;;;19.03;70.25;100288.00;5222142;28;20046;-80
2022/09/08 06:46:18;;;;;;;0.70;0.70;;;;;;;19.04;70.44;100286.22;5181542;28;20037;-81
2022/09/08 06:48:49;;;;;;;0.20;0.20;;;;;;;18.77;73.04;100289.78;5180971;28;20044;-80
2022/09/08 06:51:28;;;;;;;0.40;0.40;;;;;;;18.85;70.96;100290.09;5188189;28;20025;-80
2022/09/08 06:54:34;;;;;;;0.98;0.93;;;;;;;18.83;71.19;100292.00;5219751;28;20041;-81
2022/09/08 06:57:26;;;;;;;0.50;0.50;;;;;;;18.99;70.01;100298.94;5206211;28;20537;-81
2022/09/08 07:00:19;;;;;;;0.40;0.40;;;;;;;18.78;72.27;100302.13;5207001;28;20041;-81
2022/09/08 07:03:45;;;;;;;0.38;0.38;;;;;;;18.98;68.92;100299.91;5211192;28;20036;-81
2022/09/08 07:06:23;;;;;;;1.42;1.17;;;;;;;19.06;68.14;100296.72;5220501;28;20125;-81
2022/09/08 07:09:01;;;;;;;0.30;0.30;;;;;;;18.90;70.97;100296.91;5214292;28;20040;-81
2022/09/08 07:11:34;;;;;;;0.30;0.30;;;;;;;18.93;69.30;100305.53;5196309;28;20641;-81
2022/09/08 07:14:49;;;;;;;0.73;0.73;;;;;;;18.98;68.01;100306.09;5209822;28;20045;-82
2022/09/08 07:17:25;;;;;;;;;;;;;;;19.01;68.24;100311.19;5195919;28;20063;-81
2022/09/08 07:19:56;;;;;;;0.40;0.40;;;;;;;19.03;67.91;100308.44;5228289;28;19995;-82
2022/09/08 07:22:44;;;;;;;0.30;0.30;;;;;;;18.88;69.75;100311.13;5193757;28;20120;-82
2022/09/08 07:25:36;;;;;;;0.20;0.20;;;;;;;18.96;69.08;100315.13;5212257;28;20441;-82
2022/09/08 07:28:19;;;;;;;0.20;0.20;;;;;;;18.93;69.58;100318.00;5205371;28;20116;-82
2022/09/08 07:30:53;;;;;;;;;;;;;;;18.94;67.42;100322.34;5218898;28;20044;-82
2022/09/08 07:33:40;;;;;;;0.45;0.45;;;;;;;18.99;66.51;100322.88;5228449;28;19917;-81
2022/09/08 07:36:20;;;;;;;0.40;0.40;;;;;;;18.96;66.36;100323.13;5216133;28;20489;-82
2022/09/08 07:38:57;;;;;;;1.65;0.38;;;;;;;18.96;66.41;100315.13;5221148;28;20063;-82
2022/09/08 07:41:35;;;;;;;0.30;0.30;;;;;;;18.96;66.85;100323.13;5214799;28;20029;-82
2022/09/08 07:44:17;;;;;;;0.32;0.32;;;;;;;18.94;66.70;100323.19;5220078;28;20040;-83
2022/09/08 07:47:25;;;;;;;0.30;0.30;;;;;;;19.01;66.16;100315.66;5215134;28;20102;-81
2022/09/08 07:50:03;;;;;;;0.20;0.20;;;;;;;19.00;67.21;100313.94;5193649;28;20096;-82
2022/09/08 07:53:18;;;;;;;0.40;0.40;;;;;;;19.00;66.50;100320.13;5192794;28;20051;-83
2022/09/08 07:55:48;;;;;;;0.30;0.30;;;;;;;19.01;66.82;100316.50;5211380;28;20111;-81
2022/09/08 07:58:19;;;;;;;1.85;0.88;;;;;;;19.10;66.97;100319.47;5190125;28;20616;-82
2022/09/08 08:00:59;;;;;;;1.80;1.05;;;;;;;19.03;68.27;100319.06;5203768;28;20040;-82
2022/09/08 08:03:45;;;;;;;0.20;0.20;;;;;;;19.06;67.19;100315.34;5220839;28;20044;-82
2022/09/08 08:06:34;;;;;;;0.30;0.30;;;;;;;19.05;67.71;100319.78;5211177;28;20080;-81
2022/09/08 08:09:26;;;;;;;0.20;0.20;;;;;;;19.02;70.70;100325.34;5189109;28;20032;-81
2022/09/08 08:12:26;;;;;;;0.63;0.63;;;;;;;19.05;67.76;100319.78;5211726;28;20432;-80
2022/09/08 08:15:06;;;;;;;0.20;0.20;;;;;;;18.97;69.55;100324.78;5229267;28;20036;-81
2022/09/08 08:17:53;;;;;;;0.28;0.28;;;;;;;19.07;68.69;100320.53;5193454;28;20290;-81
2022/09/08 08:20:29;;;;;;;1.08;0.35;;;;;;;19.12;67.91;100329.06;5218055;28;20052;-82
2022/09/08 08:23:39;;;;;;;0.20;0.20;;;;;;;19.21;69.12;100332.03;5216820;28;20041;-81
2022/09/08 08:26:25;;;;;;;0.98;0.90;;;;;;;18.86;73.26;100325.50;5197621;28;20040;-82
2022/09/08 08:29:12;;;;;;;0.25;0.25;;;;;;;19.16;70.68;100332.38;5219324;28;20047;-81
2022/09/08 08:32:10;;;;;;;0.90;0.77;;;;;;;19.07;72.60;100327.69;5225038;28;20252;-81
2022/09/08 08:34:53;;;;;;;0.45;0.45;;;;;;;19.08;73.13;100330.22;5212026;28;20034;-81
2022/09/08 08:37:29;;;;;;;0.35;0.35;;;;;;;18.67;73.45;100329.44;5217910;28;20036;-81
2022/09/08 08:40:00;;;;;;;0.68;0.68;;;;;;;18.92;73.10;100332.19;5244619;28;20028;-81
2022/09/08 08:42:54;;;;;;;0.38;0.38;;;;;;;19.14;70.84;100331.63;5197346;28;20037;-81
2022/09/08 08:45:40;;;;;;;0.32;0.32;;;;;;;19.09;70.88;100329.28;5214738;28;20044;-81
2022/09/08 08:48:50;;;;;;;0.22;0.22;;;;;;;19.08;71.63;100330.22;5202404;28;20097;-81
2022/09/08 08:51:59;;;;;;;0.30;0.30;;;;;;;18.81;71.47;100328.47;5181051;28;20033;-81
2022/09/08 08:54:36;;;;;;;0.20;0.20;;;;;;;18.95;70.87;100330.22;5217950;28;20040;-81
2022/09/08 08:57:21;;;;;;;0.40;0.40;;;;;;;18.74;70.92;100335.16;5204615;28;20576;-80
2022/09/08 09:00:20;;;;;;;0.25;0.25;;;;;;;18.90;70.09;100328.78;5197322;28;20053;-80
2022/09/08 09:03:05;;;;;;;0.20;0.20;;;;;;;19.08;68.58;100330.22;5236144;28;20048;-80
2022/09/08 09:06:02;;;;;;;0.20;0.20;;;;;;;18.97;69.41;100335.41;5212934;28;20041;-80
2022/09/08 09:08:39;;;;;;;0.47;0.45;;;;;;;19.02;69.56;100330.66;5193429;28;20041;-81
2022/09/08 09:11:30;;;;;;;0.30;0.30;;;;;;;19.09;68.51;100331.94;5208167;28;20029;-80
2022/09/08 09:14:15;;;;;;;0.30;0.30;;;;;;;19.18;68.58;100341.06;5194358;28;20086;-80
2022/09/08 09:17:01;;;;;;;0.30;0.30;;;;;;;19.19;68.18;100338.31;5211126;28;20233;-81
2022/09/08 09:20:01;;;;;;;0.30;0.30;;;;;;;19.15;68.57;100347.44;5205979;28;20082;-81
2022/09/08 09:22:46;;;;;;;0.32;0.32;;;;;;;19.11;67.98;100340.66;5188289;28;20112;-81
2022/09/08 09:25:34;;;;;;;0.20;0.20;;;;;;;19.02;68.63;100343.94;5235624;28;20071;-81
2022/09/08 09:28:32;;;;;;;0.22;0.22;;;;;;;19.15;67.50;100344.78;5216031;28;20036;-81
2022/09/08 09:31:15;;;;;;;0.70;0.63;;;;;;;19.12;67.98;100341.50;5234360;28;20040;-81
2022/09/08 09:34:09;;;;;;;0.40;0.40;;;;;;;19.21;67.60;100345.34;5195204;28;20055;-82
2022/09/08 09:36:40;;;;;;;0.30;0.30;;;;;;;19.30;67.05;100342.00;5205991;28;20032;-82
2022/09/08 09:39:49;;;;;;;0.40;0.40;;;;;;;19.33;67.28;100341.81;5217511;28;20446;-82
2022/09/08 09:43:18;;;;;;;0.57;0.55;;;;;;;19.30;68.13;100342.00;5149765;28;20042;-82
2022/09/08 09:45:48;;;;;;;0.17;0.17;;;;;;;19.32;67.58;100340.09;5138633;28;20038;-82
2022/09/08 09:48:38;;;;;;;0.22;0.22;;;;;;;19.25;68.24;100344.16;5150387;28;20106;-82
2022/09/08 09:51:27;;;;;;;0.52;0.52;;;;;;;19.18;69.34;100336.63;5219911;28;20028;-82
2022/09/08 09:54:11;;;;;;;1.95;1.33;;;;;;;19.08;69.49;100332.03;5200702;28;20046;-80
2022/09/08 09:57:06;;;;;;;0.20;0.20;;;;;;;19.09;69.83;100339.06;5191559;28;20892;-79
2022/09/08 09:59:58;;;;;;;0.20;0.20;;;;;;;19.24;68.31;100337.13;5181430;28;20037;-79
2022/09/08 10:02:37;;;;;;;0.60;0.60;;;;;;;19.40;67.08;100332.44;5197896;28;20780;-80
2022/09/08 10:05:44;;;;;;;0.20;0.20;;;;;;;19.48;66.76;100335.41;5210529;28;20047;-81
2022/09/08 10:08:20;;;;;;;0.20;0.20;;;;;;;19.43;66.93;100332.22;5181513;28;20091;-81
2022/09/08 10:11:07;;;;;;;0.40;0.40;;;;;;;19.47;66.58;100341.69;5219069;28;20089;-81
2022/09/08 10:13:57;;;;;;;0.40;0.40;;;;;;;19.37;66.60;100332.69;5220534;28;20033;-81
2022/09/08 10:16:37;;;;;;;0.32;0.32;;;;;;;19.52;66.01;100333.38;5193834;28;20227;-81
2022/09/08 10:19:31;;;;;;;0.20;0.20;;;;;;;19.37;66.63;100331.81;5227695;28;20087;-81
2022/09/08 10:22:43;;;;;;;0.30;0.30;;;;;;;19.21;65.97;100324.06;5215382;28;20044;-81
2022/09/08 10:25:46;;;;;;;0.30;0.30;;;;;;;19.19;66.28;100329.47;5199040;28;20033;-82
2022/09/08 10:28:39;;;;;;;0.63;0.63;;;;;;;19.30;64.95;100342.00;5230889;28;20061;-81
2022/09/08 10:31:47;;;;;;;0.85;0.60;;;;;;;19.35;63.92;100338.09;5199723;28;20033;-82
2022/09/08 10:34:45;;;;;;;0.20;0.20;;;;;;;19.61;63.29;100339.88;5186027;28;20088;-81
2022/09/08 10:37:38;;;;;;;0.20;0.20;;;;;;;19.51;63.57;100331.69;5227326;28;20436;-81
2022/09/08 10:40:34;;;;;;;0.45;0.45;;;;;;;19.39;62.88;100330.72;5201613;28;20051;-82
2022/09/08 10:43:31;;;;;;;1.38;0.57;;;;;;;19.34;62.91;100324.91;5209935;28;20041;-81
2022/09/08 10:46:20;;;;;;;0.52;0.52;;;;;;;19.45;63.11;100332.97;5205896;28;20040;-81
2022/09/08 10:49:43;;;;;;;0.95;0.30;;;;;;;19.36;63.36;100320.34;5198901;28;20481;-82
2022/09/08 10:52:40;;;;;;;0.20;0.20;;;;;;;19.47;62.93;100316.91;5222277;28;20044;-81
2022/09/08 10:55:27;;;;;;;0.32;0.32;;;;;;;19.27;62.67;100321.81;5209582;28;20179;-81
2022/09/08 10:58:23;;;;;;;0.22;0.22;;;;;;;19.35;62.48;100318.63;5196420;28;20668;-82
2022/09/08 11:01:31;;;;;;;0.30;0.30;;;;;;;19.21;62.66;100316.09;5183978;28;20041;-81
2022/09/08 11:04:44;;;;;;;0.20;0.20;;;;;;;19.19;63.47;100311.72;5195259;28;20041;-82
2022/09/08 11:07:38;;;;;;;0.20;0.20;;;;;;;19.28;62.92;100314.69;5210704;28;20024;-83
2022/09/08 11:10:30;;;;;;;0.20;0.20;;;;;;;19.43;62.54;100312.75;5218808;28;20033;-81
2022/09/08 11:13:30;;;;;;;0.20;0.20;;;;;;;19.53;62.10;100310.31;5238096;28;20067;-81
2022/09/08 11:16:01;;;;;;;0.50;0.50;;;;;;;19.57;62.30;100309.09;5231672;28;20080;-81
2022/09/08 11:18:41;;;;;;;0.20;0.20;;;;;;;19.70;63.30;100307.28;5200573;28;20042;-82
2022/09/08 11:21:29;;;;;;;0.28;0.28;;;;;;;19.79;62.20;100303.94;5193824;28;20109;-81
2022/09/08 11:24:29;;;;;;;0.20;0.20;;;;;;;19.78;62.38;100312.91;5195824;28;20041;-81
2022/09/08 11:27:05;;;;;;;0.20;0.20;;;;;;;19.77;62.36;100313.00;5219053;28;20063;-81
2022/09/08 11:29:38;;;;;;;0.20;0.20;;;;;;;19.82;63.06;100310.88;5217357;28;20071;-81
2022/09/08 11:32:14;;;;;;;0.30;0.30;;;;;;;19.73;61.90;100307.03;5211593;28;20124;-82
2022/09/08 11:34:54;;;;;;;0.60;0.60;;;;;;;19.80;62.14;100308.28;5215704;28;20040;-81
2022/09/08 11:37:33;;;;;;;0.20;0.20;;;;;;;19.76;61.24;100301.50;5244891;28;20097;-81
2022/09/08 11:40:31;;;;;;;0.22;0.22;;;;;;;19.73;60.94;100306.19;5196714;28;20047;-81
2022/09/08 11:43:28;;;;;;;3.83;1.45;;;;;;;19.80;60.86;100305.63;5220705;28;20400;-81
2022/09/08 11:46:11;;;;;;;0.20;0.20;;;;;;;19.78;60.92;100304.03;5219598;28;20033;-83
2022/09/08 11:48:58;;;;;;;0.40;0.40;;;;;;;19.77;59.91;100303.22;5189182;28;20494;-84
2022/09/08 11:51:50;;;;;;;0.25;0.25;;;;;;;19.74;59.15;100298.09;5237128;28;20029;-82
2022/09/08 11:54:36;;;;;;;0.20;0.20;;;;;;;19.87;59.82;100297.25;5214682;28;20373;-83
2022/09/08 11:57:19;;;;;;;0.20;0.20;;;;;;;19.99;58.85;100299.00;5209884;28;20037;-82
2022/09/08 12:00:21;;;;;;;0.20;0.20;;;;;;;20.10;58.77;100293.75;5223381;28;20117;-82
2022/09/08 12:03:11;;;;;;;0.47;0.47;;;;;;;20.21;58.88;100294.72;5218548;28;20036;-83
2022/09/08 12:05:43;;;;;;;0.20;0.20;;;;;;;20.39;58.37;100298.69;5204380;28;20064;-82
2022/09/08 12:08:29;;;;;;;0.40;0.40;;;;;;;20.62;57.85;100293.44;5199360;28;20043;-82
2022/09/08 12:11:15;;;;;;;0.20;0.20;;;;;;;20.71;58.77;100276.72;5230444;28;20040;-81
2022/09/08 12:14:03;;;;;;;0.38;0.38;;;;;;;20.68;57.09;100276.13;5201926;28;20033;-83
2022/09/08 12:16:48;;;;;;;7.13;0.60;;;;;;;20.59;56.03;100283.84;5202394;28;20029;-81
2022/09/08 12:19:40;;;;;;;0.20;0.20;;;;;;;20.56;55.22;100276.13;5210708;28;20113;-82
2022/09/08 12:22:39;;;;;;;0.20;0.20;;;;;;;20.71;55.45;100273.22;5210421;28;20739;-83
2022/09/08 12:25:28;;;;;;;0.20;0.20;;;;;;;20.80;55.52;100279.69;5190201;28;20034;-83
2022/09/08 12:28:24;;;;;;;0.20;0.20;;;;;;;20.86;56.00;100273.91;5203541;28;20040;-81
2022/09/08 12:31:08;;;;;;;3.42;1.05;;;;;;;21.09;54.59;100271.25;5197582;28;20032;-82
2022/09/08 12:33:47;;;;;;;;;;;;;;;21.32;53.02;100274.78;5201803;28;20087;-81